createdAt,value
2019-04-26T00:02:40.504Z,64.90
2019-04-26T00:05:09.396Z,65.10
2019-04-26T00:07:38.203Z,65.20
2019-04-26T00:10:14.667Z,65.30
2019-04-26T00:12:56.134Z,65.50
2019-04-26T00:15:51.008Z,65.70
2019-04-26T00:18:18.891Z,65.60
2019-04-26T00:20:47.866Z,65.80
2019-04-26T00:23:16.138Z,66.00
2019-04-26T00:25:43.916Z,66.20
2019-04-26T00:28:12.550Z,66.40
2019-04-26T00:30:40.521Z,66.50
2019-04-26T00:33:08.167Z,66.90
2019-04-26T00:35:46.920Z,67.10
2019-04-26T00:38:06.240Z,67.10
2019-04-26T00:40:33.798Z,68.10
2019-04-26T00:43:02.842Z,67.80
2019-04-26T00:45:33.502Z,68.10
2019-04-26T00:48:01.566Z,68.30
2019-04-26T00:50:30.270Z,68.70
2019-04-26T00:52:59.488Z,68.90
2019-04-26T00:55:27.884Z,69.10
2019-04-26T00:57:55.674Z,69.30
2019-04-26T01:00:23.690Z,69.50
2019-04-26T01:02:54.852Z,69.80
2019-04-26T01:05:23.113Z,70.10
2019-04-26T01:07:53.082Z,71.10
2019-04-26T01:10:21.593Z,70.70
2019-04-26T01:12:49.399Z,71.00
2019-04-26T01:15:18.838Z,71.30
2019-04-26T01:17:47.477Z,71.80
2019-04-26T01:20:17.379Z,72.00
2019-04-26T01:22:49.728Z,72.50
2019-04-26T01:25:52.778Z,72.90
2019-04-26T01:28:35.359Z,73.40
2019-04-26T01:31:06.317Z,73.80
2019-04-26T01:33:36.657Z,74.00
2019-04-26T01:36:12.936Z,74.30
2019-04-26T01:38:34.126Z,74.70
2019-04-26T01:41:06.010Z,74.90
2019-04-26T01:43:46.310Z,75.20
2019-04-26T01:46:20.646Z,75.40
2019-04-26T01:48:56.189Z,75.60
2019-04-26T01:51:34.544Z,76.10
2019-04-26T01:54:02.485Z,76.30
2019-04-26T01:56:34.485Z,76.60
2019-04-26T01:59:02.811Z,77.10
2019-04-26T02:01:41.698Z,77.40
2019-04-26T02:04:09.329Z,77.70
2019-04-26T02:06:37.269Z,78.00
2019-04-26T02:09:07.421Z,78.30
2019-04-26T02:14:31.538Z,78.80
2019-04-26T02:17:00.650Z,79.30
2019-04-26T02:19:29.463Z,79.30
2019-04-26T02:22:04.647Z,79.70
2019-04-26T02:24:35.438Z,80.20
2019-04-26T02:27:06.585Z,80.60
2019-04-26T02:29:34.743Z,80.80
2019-04-26T02:32:05.753Z,81.00
2019-04-26T02:34:37.595Z,81.30
2019-04-26T02:37:07.071Z,81.50
2019-04-26T02:39:37.959Z,82.10
2019-04-26T02:42:18.649Z,82.10
2019-04-26T02:44:58.660Z,82.30
2019-04-26T02:47:50.451Z,82.50
2019-04-26T02:50:28.328Z,82.60
2019-04-26T02:53:13.702Z,82.60
2019-04-26T02:56:02.963Z,82.80
2019-04-26T02:58:37.331Z,83.10
2019-04-26T03:01:04.865Z,83.30
2019-04-26T03:03:33.777Z,83.50
2019-04-26T03:06:02.274Z,83.90
2019-04-26T03:08:34.056Z,84.40
2019-04-26T03:11:12.334Z,84.60
2019-04-26T03:14:00.340Z,84.70
2019-04-26T03:16:50.519Z,84.80
2019-04-26T03:19:36.205Z,85.10
2019-04-26T03:22:14.269Z,85.30
2019-04-26T03:25:00.331Z,85.50
2019-04-26T03:27:45.399Z,85.70
2019-04-26T03:30:23.672Z,85.90
2019-04-26T03:33:09.879Z,85.90
2019-04-26T03:36:08.288Z,86.10
2019-04-26T03:38:48.626Z,86.40
2019-04-26T03:41:29.118Z,86.60
2019-04-26T03:44:16.573Z,86.70
2019-04-26T03:46:49.644Z,86.80
2019-04-26T03:50:14.443Z,87.10
2019-04-26T03:53:23.364Z,87.50
2019-04-26T03:56:42.377Z,87.40
2019-04-26T03:59:55.032Z,87.50
2019-04-26T04:03:43.616Z,87.60
2019-04-26T04:06:17.559Z,87.60
2019-04-26T04:08:54.638Z,87.70
2019-04-26T04:11:40.764Z,87.80
2019-04-26T04:14:16.582Z,87.90
2019-04-26T04:17:08.248Z,88.10
2019-04-26T04:20:06.270Z,88.20
2019-04-26T04:22:41.274Z,88.30
2019-04-26T04:25:13.104Z,88.70
2019-04-26T04:27:47.893Z,89.20
2019-04-26T04:30:57.699Z,89.70
2019-04-26T04:34:01.374Z,90.00
2019-04-26T04:36:36.851Z,90.20
2019-04-26T04:39:12.829Z,90.30
2019-04-26T04:42:01.127Z,90.60
2019-04-26T04:45:01.386Z,90.70
2019-04-26T04:47:56.586Z,90.80
2019-04-26T04:50:38.553Z,91.00
2019-04-26T04:53:37.541Z,91.00
2019-04-26T04:56:34.137Z,91.20
2019-04-26T04:59:06.727Z,91.60
2019-04-26T05:02:31.061Z,91.70
2019-04-26T05:05:44.925Z,91.80
2019-04-26T05:08:41.122Z,91.80
2019-04-26T05:11:19.054Z,92.20
2019-04-26T05:14:11.823Z,92.50
2019-04-26T05:17:02.864Z,92.90
2019-04-26T05:19:59.478Z,92.60
2019-04-26T05:22:39.650Z,92.70
2019-04-26T05:25:41.577Z,92.70
2019-04-26T05:28:22.445Z,92.90
2019-04-26T05:31:18.434Z,92.90
2019-04-26T05:34:22.479Z,93.00
2019-04-26T05:37:09.470Z,93.10
2019-04-26T05:39:57.857Z,93.10
2019-04-26T05:43:11.079Z,93.30
2019-04-26T05:46:43.734Z,93.40
2019-04-26T05:49:53.727Z,93.40
2019-04-26T05:52:59.838Z,93.40
2019-04-26T05:56:33.054Z,93.60
2019-04-26T05:59:54.917Z,93.60
2019-04-26T06:02:50.019Z,93.50
2019-04-26T06:05:52.614Z,93.60
2019-04-26T06:09:01.717Z,93.50
2019-04-26T06:11:45.126Z,93.30
2019-04-26T06:14:37.791Z,93.30
2019-04-26T06:17:24.735Z,93.00
2019-04-26T06:20:22.288Z,92.70
2019-04-26T06:23:02.138Z,92.40
2019-04-26T06:25:48.202Z,92.00
2019-04-26T06:28:42.902Z,91.60
2019-04-26T06:31:22.186Z,91.20
2019-04-26T06:34:15.282Z,90.70
2019-04-26T06:37:13.294Z,90.20
2019-04-26T06:39:50.571Z,90.30
2019-04-26T06:42:47.700Z,89.30
2019-04-26T06:46:37.990Z,87.90
2019-04-26T06:49:45.047Z,87.00
2019-04-26T06:52:16.871Z,86.60
2019-04-26T06:55:09.078Z,86.70
2019-04-26T06:58:00.948Z,86.80
2019-04-26T07:00:52.366Z,86.70
2019-04-26T07:03:35.846Z,86.70
2019-04-26T07:06:06.595Z,86.80
2019-04-26T07:08:59.347Z,86.10
2019-04-26T07:12:49.871Z,85.20
2019-04-26T07:15:56.771Z,84.70
2019-04-26T07:18:53.756Z,84.20
2019-04-26T07:22:35.657Z,83.80
2019-04-26T07:25:41.194Z,82.30
2019-04-26T07:28:36.327Z,81.50
2019-04-26T07:31:13.094Z,80.40
2019-04-26T07:34:31.139Z,81.00
2019-04-26T07:37:35.675Z,80.80
2019-04-26T07:41:05.677Z,80.50
2019-04-26T07:44:02.213Z,80.80
2019-04-26T07:47:08.876Z,79.80
2019-04-26T07:50:24.149Z,79.60
2019-04-26T07:53:32.946Z,79.30
2019-04-26T07:56:28.795Z,78.80
2019-04-26T07:59:36.431Z,78.30
2019-04-26T08:02:37.476Z,78.10
2019-04-26T08:05:14.440Z,77.70
2019-04-26T08:07:46.104Z,77.00
2019-04-26T08:10:17.634Z,76.20
2019-04-26T08:12:57.414Z,75.90
2019-04-26T08:15:47.235Z,75.80
2019-04-26T08:18:21.683Z,75.50
2019-04-26T08:20:53.595Z,75.30
2019-04-26T08:23:39.546Z,75.30
2019-04-26T08:26:00.650Z,74.60
2019-04-26T08:28:32.121Z,73.70
2019-04-26T08:31:01.133Z,73.00
2019-04-26T08:33:35.872Z,72.30
2019-04-26T08:36:06.069Z,72.20
2019-04-26T08:41:24.136Z,69.60
2019-04-26T08:44:14.446Z,68.70
2019-04-26T08:46:51.823Z,67.40
2019-04-26T08:49:39.966Z,67.10
2019-04-26T08:52:14.611Z,66.50
2019-04-26T08:54:48.687Z,66.10
2019-04-26T08:57:17.669Z,66.20
2019-04-26T08:59:50.418Z,66.30
2019-04-26T09:02:47.391Z,66.90
2019-04-26T09:05:52.322Z,67.10
2019-04-26T09:08:24.562Z,66.70
2019-04-26T09:10:55.670Z,66.50
2019-04-26T09:13:26.568Z,66.30
2019-04-26T09:16:11.340Z,65.80
2019-04-26T09:18:43.654Z,65.40
2019-04-26T09:21:08.918Z,65.00
2019-04-26T09:23:55.085Z,64.80
2019-04-26T09:26:46.699Z,64.40
2019-04-26T09:29:42.890Z,64.20
2019-04-26T09:32:30.102Z,63.80
2019-04-26T09:34:59.054Z,63.50
2019-04-26T09:37:26.764Z,63.40
2019-04-26T09:39:54.376Z,64.30
2019-04-26T09:42:29.755Z,63.50
2019-04-26T09:45:28.580Z,63.20
2019-04-26T09:48:24.699Z,62.90
2019-04-26T09:50:53.077Z,63.00
2019-04-26T09:53:21.056Z,62.70
2019-04-26T09:55:48.626Z,62.70
2019-04-26T09:58:16.489Z,62.80
2019-04-26T10:00:48.482Z,62.70
2019-04-26T10:03:14.126Z,62.40
2019-04-26T10:05:41.745Z,62.20
2019-04-26T10:08:12.771Z,62.00
2019-04-26T10:10:38.954Z,61.90
2019-04-26T10:13:41.469Z,61.70
2019-04-26T10:16:14.609Z,61.50
2019-04-26T10:18:45.075Z,61.30
2019-04-26T10:21:12.797Z,61.40
2019-04-26T10:23:40.371Z,61.30
2019-04-26T10:26:07.888Z,61.90
2019-04-26T10:28:35.696Z,62.90
2019-04-26T10:31:03.436Z,63.70
2019-04-26T10:33:32.557Z,64.50
2019-04-26T10:36:02.124Z,65.20
2019-04-26T10:38:29.731Z,65.70
2019-04-26T10:40:58.273Z,66.70
2019-04-26T10:43:25.918Z,67.60
2019-04-26T10:45:53.947Z,68.60
2019-04-26T10:48:23.290Z,68.80
2019-04-26T10:50:51.028Z,69.50
2019-04-26T10:53:36.902Z,69.90
2019-04-26T10:56:39.128Z,70.30
2019-04-26T10:59:44.125Z,71.00
2019-04-26T11:02:15.024Z,71.40
2019-04-26T11:04:42.931Z,72.10
2019-04-26T11:07:10.681Z,72.70
2019-04-26T11:09:38.265Z,73.50
2019-04-26T11:12:07.751Z,74.00
2019-04-26T11:14:35.426Z,74.00
2019-04-26T11:17:03.830Z,74.10
2019-04-26T11:19:31.992Z,73.70
2019-04-26T11:22:00.960Z,74.20
2019-04-26T11:24:28.603Z,74.40
2019-04-26T11:26:56.213Z,74.40
2019-04-26T11:29:24.976Z,74.80
2019-04-26T11:31:54.189Z,75.00
2019-04-26T11:34:23.389Z,75.50
2019-04-26T11:36:51.967Z,74.40
2019-04-26T11:39:19.602Z,74.50
2019-04-26T11:41:47.250Z,74.90
2019-04-26T11:44:15.026Z,75.10
2019-04-26T11:46:45.088Z,75.10
2019-04-26T11:49:13.418Z,74.80
2019-04-26T11:51:41.294Z,75.00
2019-04-26T11:54:09.060Z,75.20
2019-04-26T11:56:37.591Z,75.30
2019-04-26T11:59:06.675Z,75.40
2019-04-26T12:01:36.642Z,75.70
2019-04-26T12:04:23.622Z,75.70
2019-04-26T12:06:55.433Z,75.80
2019-04-26T12:09:33.414Z,75.70
2019-04-26T12:12:04.941Z,76.60
2019-04-26T12:14:33.478Z,76.10
2019-04-26T12:17:01.505Z,76.40
2019-04-26T12:19:30.334Z,76.60
2019-04-26T12:21:58.335Z,76.60
2019-04-26T12:24:29.671Z,76.90
2019-04-26T12:26:56.322Z,76.90
2019-04-26T12:29:25.139Z,77.10
2019-04-26T12:31:52.768Z,77.50
2019-04-26T12:34:20.444Z,77.80
2019-04-26T12:36:48.021Z,78.40
2019-04-26T12:39:16.837Z,78.60
2019-04-26T12:41:44.440Z,79.00
2019-04-26T12:44:13.947Z,79.30
2019-04-26T12:46:50.743Z,79.50
2019-04-26T12:49:20.258Z,79.80
2019-04-26T12:51:48.879Z,80.10
2019-04-26T12:54:17.243Z,80.60
2019-04-26T12:56:44.898Z,80.90
2019-04-26T12:59:15.644Z,81.20
2019-04-26T13:01:42.670Z,81.60
2019-04-26T13:04:11.493Z,82.00
2019-04-26T13:06:44.693Z,82.60
2019-04-26T13:09:16.898Z,83.00
2019-04-26T13:12:02.497Z,83.50
2019-04-26T13:14:58.641Z,83.70
2019-04-26T13:17:40.738Z,84.20
2019-04-26T13:20:08.935Z,84.20
2019-04-26T13:22:45.980Z,84.40
2019-04-26T13:25:15.745Z,84.60
2019-04-26T13:27:36.182Z,84.70
2019-04-26T13:30:06.832Z,84.80
2019-04-26T13:32:35.213Z,85.00
2019-04-26T13:35:03.114Z,84.80
2019-04-26T13:37:32.148Z,84.60
2019-04-26T13:39:59.902Z,84.70
2019-04-26T13:42:51.074Z,85.20
2019-04-26T13:45:45.484Z,85.30
2019-04-26T13:48:34.049Z,85.80
2019-04-26T13:51:05.883Z,85.70
2019-04-26T13:53:33.714Z,85.40
2019-04-26T13:56:02.296Z,85.40
2019-04-26T13:58:32.118Z,85.60
2019-04-26T14:01:00.906Z,85.70
2019-04-26T14:03:31.786Z,85.80
2019-04-26T14:05:58.188Z,86.20
2019-04-26T14:08:25.885Z,86.30
2019-04-26T14:10:53.392Z,86.40
2019-04-26T14:13:24.892Z,86.30
2019-04-26T14:15:52.108Z,86.40
2019-04-26T14:18:20.188Z,86.40
2019-04-26T14:20:47.897Z,86.60
2019-04-26T14:23:34.981Z,86.90
2019-04-26T14:26:08.607Z,87.10
2019-04-26T14:28:36.033Z,87.30
2019-04-26T14:31:03.658Z,87.50
2019-04-26T14:33:32.255Z,87.90
2019-04-26T14:35:59.958Z,87.80
2019-04-26T14:38:29.250Z,88.10
2019-04-26T14:41:04.049Z,88.30
2019-04-26T14:43:39.668Z,88.50
2019-04-26T14:45:56.405Z,88.70
2019-04-26T14:48:35.317Z,88.90
2019-04-26T14:50:53.427Z,89.20
2019-04-26T14:53:21.029Z,89.50
2019-04-26T14:55:51.274Z,89.80
2019-04-26T14:58:17.846Z,90.00
2019-04-26T15:00:47.286Z,90.10
2019-04-26T15:03:20.862Z,90.20
2019-04-26T15:06:12.866Z,90.40
2019-04-26T15:08:44.764Z,90.60
2019-04-26T15:11:10.212Z,90.90
2019-04-26T15:13:40.561Z,91.00
2019-04-26T15:16:10.330Z,91.20
2019-04-26T15:18:38.626Z,91.30
2019-04-26T15:21:06.443Z,91.40
2019-04-26T15:23:34.031Z,91.50
2019-04-26T15:26:03.172Z,91.70
2019-04-26T15:28:30.919Z,91.90
2019-04-26T15:30:59.390Z,92.00
2019-04-26T15:33:26.942Z,92.20
2019-04-26T15:35:54.450Z,92.40
2019-04-26T15:38:23.093Z,92.50
2019-04-26T15:41:18.256Z,92.60
2019-04-26T15:44:07.786Z,92.80
2019-04-26T15:47:05.886Z,92.80
2019-04-26T15:49:52.825Z,93.00
2019-04-26T15:52:20.490Z,93.20
2019-04-26T15:54:47.824Z,93.30
2019-04-26T15:57:15.385Z,93.60
2019-04-26T15:59:43.982Z,93.90
2019-04-26T16:02:12.394Z,93.70
2019-04-26T16:04:42.271Z,93.90
2019-04-26T16:07:10.035Z,94.00
2019-04-26T16:09:39.467Z,94.00
2019-04-26T16:12:07.058Z,94.20
2019-04-26T16:14:36.832Z,94.30
2019-04-26T16:17:06.533Z,94.40
2019-04-26T16:19:34.098Z,94.50
2019-04-26T16:22:02.991Z,94.60
2019-04-26T16:24:30.679Z,94.60
2019-04-26T16:26:59.748Z,94.80
2019-04-26T16:29:46.824Z,94.80
2019-04-26T16:32:47.060Z,94.90
2019-04-26T16:35:12.850Z,94.90
2019-04-26T16:37:40.510Z,95.00
2019-04-26T16:40:12.409Z,95.10
2019-04-26T16:42:38.460Z,95.20
2019-04-26T16:45:07.999Z,95.30
2019-04-26T16:47:45.175Z,95.30
2019-04-26T16:50:05.980Z,95.50
2019-04-26T16:52:33.841Z,95.60
2019-04-26T16:55:04.336Z,95.70
2019-04-26T16:57:33.536Z,95.80
2019-04-26T17:00:04.251Z,95.90
2019-04-26T17:02:36.434Z,96.10
2019-04-26T17:05:04.536Z,96.10
2019-04-26T17:07:31.305Z,96.20
2019-04-26T17:09:59.956Z,96.20
2019-04-26T17:12:30.016Z,96.10
2019-04-26T17:14:58.223Z,96.00
2019-04-26T17:17:25.838Z,95.80
2019-04-26T17:19:54.610Z,95.70
2019-04-26T17:22:56.997Z,95.70
2019-04-26T17:25:38.184Z,95.80
2019-04-26T17:28:05.818Z,95.90
2019-04-26T17:30:40.844Z,96.10
2019-04-26T17:33:03.410Z,96.30
2019-04-26T17:35:32.665Z,96.30
2019-04-26T17:38:04.993Z,96.40
2019-04-26T17:40:36.195Z,96.50
2019-04-26T17:43:01.058Z,96.60
2019-04-26T17:45:28.597Z,96.60
2019-04-26T17:47:56.116Z,96.70
2019-04-26T17:50:23.937Z,96.90
2019-04-26T17:52:51.598Z,96.90
2019-04-26T17:55:19.137Z,97.00
2019-04-26T17:57:48.400Z,97.10
2019-04-26T18:00:21.082Z,97.20
2019-04-26T18:02:48.308Z,97.20
2019-04-26T18:05:19.099Z,97.20
2019-04-26T18:07:50.580Z,97.30
2019-04-26T18:10:15.214Z,97.30
2019-04-26T18:12:44.656Z,97.30
2019-04-26T18:15:17.291Z,97.40
2019-04-26T18:18:17.570Z,97.40
2019-04-26T18:21:18.892Z,97.50
2019-04-26T18:23:48.701Z,97.80
2019-04-26T18:26:17.422Z,97.50
2019-04-26T18:28:51.823Z,97.50
2019-04-26T18:31:21.484Z,97.60
2019-04-26T18:33:46.835Z,97.70
2019-04-26T18:36:14.644Z,97.80
2019-04-26T18:38:48.451Z,97.80
2019-04-26T18:41:13.657Z,97.90
2019-04-26T18:43:42.726Z,97.90
2019-04-26T18:46:16.059Z,98.00
2019-04-26T18:48:44.101Z,98.10
2019-04-26T18:51:12.266Z,98.10
2019-04-26T18:53:57.742Z,98.20
2019-04-26T18:56:25.367Z,98.30
2019-04-26T18:58:55.624Z,98.30
2019-04-26T19:01:22.307Z,98.40
2019-04-26T19:03:49.733Z,98.50
2019-04-26T19:06:28.955Z,98.60
2019-04-26T19:08:50.168Z,98.70
2019-04-26T19:11:16.411Z,98.80
2019-04-26T19:14:12.978Z,98.90
2019-04-26T19:16:58.885Z,99.00
2019-04-26T19:19:51.667Z,99.00
2019-04-26T19:22:20.887Z,99.00
2019-04-26T19:24:49.428Z,99.00
2019-04-26T19:27:22.402Z,99.00
2019-04-26T19:29:47.476Z,99.10
2019-04-26T19:32:15.093Z,99.10
2019-04-26T19:34:42.633Z,99.20
2019-04-26T19:37:10.285Z,99.30
2019-04-26T19:39:38.796Z,99.40
2019-04-26T19:42:06.485Z,99.40
2019-04-26T19:44:34.727Z,99.70
2019-04-26T19:47:24.975Z,99.50
2019-04-26T19:50:09.053Z,99.60
2019-04-26T19:52:58.681Z,99.60
2019-04-26T19:55:47.425Z,99.60
2019-04-26T19:58:20.374Z,99.50
2019-04-26T20:00:46.828Z,99.50
2019-04-26T20:03:16.730Z,99.60
2019-04-26T20:05:44.297Z,99.70
2019-04-26T20:08:12.161Z,99.60
2019-04-26T20:10:43.699Z,99.80
2019-04-26T20:13:15.060Z,99.90
2019-04-26T20:15:42.338Z,99.90
2019-04-26T20:18:12.079Z,99.90
2019-04-26T20:20:41.287Z,99.90
2019-04-26T20:23:12.354Z,99.90
2019-04-26T20:25:41.077Z,99.90
2019-04-26T20:28:08.689Z,99.90
2019-04-26T20:30:48.078Z,99.90
2019-04-26T20:33:15.997Z,99.90
2019-04-26T20:35:44.123Z,99.90
2019-04-26T20:38:11.964Z,99.90
2019-04-26T20:40:43.397Z,99.90
2019-04-26T20:43:20.907Z,99.90
2019-04-26T20:45:42.485Z,99.90
2019-04-26T20:48:09.703Z,99.90
2019-04-26T20:50:37.366Z,99.90
2019-04-26T20:53:05.032Z,99.90
2019-04-26T20:55:34.611Z,99.90
2019-04-26T20:58:05.770Z,99.90
2019-04-26T21:00:31.710Z,99.90
2019-04-26T21:03:01.493Z,99.90
2019-04-26T21:05:28.658Z,99.80
2019-04-26T21:07:56.150Z,99.80
2019-04-26T21:10:25.772Z,99.80
2019-04-26T21:12:54.937Z,99.80
2019-04-26T21:15:24.108Z,99.80
2019-04-26T21:17:51.953Z,99.80
2019-04-26T21:20:21.540Z,99.80
2019-04-26T21:22:49.622Z,99.70
2019-04-26T21:25:27.799Z,99.80
2019-04-26T21:28:11.582Z,99.80
2019-04-26T21:30:45.614Z,99.80
2019-04-26T21:33:39.733Z,99.70
2019-04-26T21:36:29.772Z,99.70
2019-04-26T21:39:18.763Z,99.70
2019-04-26T21:41:48.338Z,99.60
2019-04-26T21:44:15.913Z,99.60
2019-04-26T21:46:43.631Z,99.60
2019-04-26T21:49:17.076Z,99.70
2019-04-26T21:51:44.636Z,99.70
2019-04-26T21:54:10.068Z,99.70
2019-04-26T21:56:37.639Z,99.80
2019-04-26T21:59:05.337Z,99.80
2019-04-26T22:01:33.827Z,99.90
2019-04-26T22:04:03.532Z,99.80
2019-04-26T22:06:31.102Z,99.80
2019-04-26T22:09:33.316Z,99.80
2019-04-26T22:11:59.719Z,99.80
2019-04-26T22:14:29.471Z,99.70
2019-04-26T22:17:10.350Z,99.70
2019-04-26T22:19:56.349Z,99.70
2019-04-26T22:22:29.556Z,99.70
2019-04-26T22:24:58.146Z,99.70
2019-04-26T22:27:25.573Z,99.80
2019-04-26T22:29:54.865Z,99.80
2019-04-26T22:32:22.949Z,99.80
2019-04-26T22:34:50.777Z,99.80
2019-04-26T22:37:29.253Z,99.90
2019-04-26T22:39:47.807Z,99.80
2019-04-26T22:42:15.770Z,99.90
2019-04-26T22:45:09.121Z,99.90
2019-04-26T22:47:56.165Z,99.90
2019-04-26T22:50:25.077Z,99.90
2019-04-26T22:52:54.643Z,99.90
2019-04-26T22:55:26.141Z,99.90
2019-04-26T22:57:53.009Z,99.90
2019-04-26T23:00:27.876Z,99.90
2019-04-26T23:02:53.392Z,99.90
2019-04-26T23:05:22.992Z,99.90
2019-04-26T23:07:54.756Z,99.90
2019-04-26T23:10:28.228Z,99.90
2019-04-26T23:13:07.598Z,99.90
2019-04-26T23:15:46.653Z,99.90
2019-04-26T23:18:33.457Z,99.90
2019-04-26T23:21:07.726Z,99.90
2019-04-26T23:23:37.121Z,99.90
2019-04-26T23:26:06.223Z,99.90
2019-04-26T23:28:37.066Z,99.90
2019-04-26T23:31:07.835Z,99.90
2019-04-26T23:33:34.528Z,99.90
2019-04-26T23:36:03.238Z,99.90
2019-04-26T23:38:34.546Z,99.90
2019-04-26T23:41:01.191Z,99.90
2019-04-26T23:43:31.570Z,99.90
2019-04-26T23:46:01.063Z,99.90
2019-04-26T23:48:28.843Z,99.90
2019-04-26T23:50:59.876Z,99.90
2019-04-26T23:53:25.958Z,99.90
2019-04-26T23:55:54.782Z,99.90
2019-04-26T23:58:23.025Z,99.90
